createdAt,value
2017-12-06T00:00:55.294Z,6.90
2017-12-06T00:03:21.476Z,6.90
2017-12-06T00:05:47.651Z,6.90
2017-12-06T00:08:13.780Z,7.00
2017-12-06T00:10:39.955Z,6.90
2017-12-06T00:13:12.066Z,7.00
2017-12-06T00:15:42.095Z,7.00
2017-12-06T00:18:08.285Z,7.10
2017-12-06T00:20:34.475Z,7.00
2017-12-06T00:23:00.673Z,7.10
2017-12-06T00:25:26.799Z,7.10
2017-12-06T00:27:52.979Z,7.10
2017-12-06T00:30:19.911Z,7.10
2017-12-06T00:32:46.085Z,7.10
2017-12-06T00:35:12.967Z,7.10
2017-12-06T00:37:39.164Z,7.10
2017-12-06T00:40:05.298Z,7.10
2017-12-06T00:42:31.439Z,7.20
2017-12-06T00:44:57.629Z,7.20
2017-12-06T00:47:23.786Z,7.20
2017-12-06T00:49:49.977Z,7.20
2017-12-06T00:52:16.116Z,7.20
2017-12-06T00:54:42.662Z,7.20
2017-12-06T00:57:08.808Z,7.20
2017-12-06T00:59:34.981Z,7.20
2017-12-06T01:02:01.194Z,7.20
2017-12-06T01:04:28.062Z,7.20
2017-12-06T01:06:54.328Z,7.10
2017-12-06T01:09:20.523Z,7.20
2017-12-06T01:11:46.654Z,7.20
2017-12-06T01:14:12.852Z,7.20
2017-12-06T01:16:39.007Z,7.20
2017-12-06T01:19:05.200Z,7.20
2017-12-06T01:21:31.373Z,7.20
2017-12-06T01:23:58.264Z,7.20
2017-12-06T01:26:25.155Z,7.20
2017-12-06T01:28:51.307Z,7.20
2017-12-06T01:31:17.495Z,7.20
2017-12-06T01:33:43.634Z,7.20
2017-12-06T01:36:09.759Z,7.20
2017-12-06T01:38:35.952Z,7.20
2017-12-06T01:41:02.078Z,7.20
2017-12-06T01:43:28.376Z,7.30
2017-12-06T01:45:54.598Z,7.30
2017-12-06T01:48:20.764Z,7.30
2017-12-06T01:50:46.972Z,7.20
2017-12-06T01:53:14.029Z,7.30
2017-12-06T01:55:40.279Z,7.30
2017-12-06T01:58:06.434Z,7.30
2017-12-06T02:00:32.596Z,7.30
2017-12-06T02:02:59.499Z,7.20
2017-12-06T02:05:25.698Z,7.20
2017-12-06T02:07:51.890Z,7.10
2017-12-06T02:10:18.770Z,7.10
2017-12-06T02:12:44.913Z,7.10
2017-12-06T02:15:11.098Z,7.10
2017-12-06T02:17:37.996Z,7.10
2017-12-06T02:20:04.244Z,7.10
2017-12-06T02:22:31.171Z,7.10
2017-12-06T02:24:57.366Z,7.10
2017-12-06T02:27:23.570Z,7.00
2017-12-06T02:29:49.752Z,7.10
2017-12-06T02:32:16.000Z,7.10
2017-12-06T02:34:43.208Z,7.00
2017-12-06T02:37:09.371Z,7.00
2017-12-06T02:39:47.818Z,7.00
2017-12-06T02:42:26.368Z,7.00
2017-12-06T02:45:04.852Z,7.00
2017-12-06T02:47:31.020Z,7.00
2017-12-06T02:49:57.305Z,6.90
2017-12-06T02:52:23.408Z,6.90
2017-12-06T02:54:49.571Z,6.90
2017-12-06T02:57:15.735Z,6.90
2017-12-06T02:59:41.883Z,6.90
2017-12-06T03:02:08.087Z,6.90
2017-12-06T03:04:34.260Z,6.90
2017-12-06T03:07:00.427Z,6.80
2017-12-06T03:09:26.622Z,6.90
2017-12-06T03:11:52.759Z,6.90
2017-12-06T03:14:18.921Z,6.90
2017-12-06T03:16:45.103Z,6.90
2017-12-06T03:19:11.275Z,6.90
2017-12-06T03:21:37.467Z,6.90
2017-12-06T03:24:03.618Z,6.90
2017-12-06T03:26:29.820Z,6.90
2017-12-06T03:28:56.004Z,7.00
2017-12-06T03:31:22.175Z,7.00
2017-12-06T03:33:48.348Z,6.90
2017-12-06T03:36:15.291Z,7.00
2017-12-06T03:38:42.215Z,7.00
2017-12-06T03:41:08.419Z,7.00
2017-12-06T03:43:34.635Z,7.00
2017-12-06T03:46:00.782Z,7.00
2017-12-06T03:48:27.772Z,7.00
2017-12-06T03:50:53.891Z,7.00
2017-12-06T03:53:20.794Z,7.00
2017-12-06T03:55:46.991Z,7.00
2017-12-06T03:58:13.151Z,6.90
2017-12-06T04:00:39.347Z,6.90
2017-12-06T04:03:05.536Z,6.90
2017-12-06T04:05:32.444Z,6.90
2017-12-06T04:07:58.607Z,6.90
2017-12-06T04:10:25.500Z,6.90
2017-12-06T04:12:51.715Z,6.90
2017-12-06T04:15:17.874Z,6.90
2017-12-06T04:17:44.846Z,6.90
2017-12-06T04:20:11.152Z,6.90
2017-12-06T04:22:37.293Z,6.90
2017-12-06T04:25:04.245Z,7.00
2017-12-06T04:27:30.395Z,6.90
2017-12-06T04:29:56.540Z,6.90
2017-12-06T04:32:22.690Z,7.00
2017-12-06T04:34:48.860Z,6.90
2017-12-06T04:37:15.114Z,6.90
2017-12-06T04:39:41.287Z,6.90
2017-12-06T04:42:07.455Z,6.90
2017-12-06T04:44:33.685Z,6.90
2017-12-06T04:46:59.846Z,6.90
2017-12-06T04:49:26.038Z,6.90
2017-12-06T04:51:52.224Z,6.90
2017-12-06T04:54:19.118Z,6.90
2017-12-06T04:56:45.304Z,6.80
2017-12-06T04:59:12.174Z,6.80
2017-12-06T05:01:38.375Z,6.80
2017-12-06T05:04:04.554Z,6.80
2017-12-06T05:06:30.695Z,6.90
2017-12-06T05:08:56.984Z,7.00
2017-12-06T05:11:23.127Z,6.90
2017-12-06T05:13:49.348Z,6.90
2017-12-06T05:16:15.527Z,6.90
2017-12-06T05:18:42.438Z,7.00
2017-12-06T05:21:08.635Z,6.90
2017-12-06T05:23:35.552Z,6.90
2017-12-06T05:26:01.785Z,6.90
2017-12-06T05:28:27.955Z,7.00
2017-12-06T05:30:54.098Z,6.90
2017-12-06T05:33:20.295Z,7.00
2017-12-06T05:35:46.484Z,6.90
2017-12-06T05:38:12.794Z,6.90
2017-12-06T05:40:39.670Z,6.90
2017-12-06T05:43:05.831Z,6.90
2017-12-06T05:45:32.027Z,6.90
2017-12-06T05:47:58.195Z,7.00
2017-12-06T05:50:24.388Z,6.90
2017-12-06T05:52:50.606Z,6.90
2017-12-06T05:55:16.747Z,6.90
2017-12-06T05:57:42.925Z,6.90
2017-12-06T06:00:09.079Z,6.90
2017-12-06T06:02:35.251Z,6.90
2017-12-06T06:05:02.170Z,6.90
2017-12-06T06:07:28.431Z,6.90
2017-12-06T06:09:55.446Z,6.90
2017-12-06T06:12:21.612Z,6.90
2017-12-06T06:14:48.547Z,6.90
2017-12-06T06:17:14.706Z,6.90
2017-12-06T06:19:40.843Z,6.90
2017-12-06T06:22:07.040Z,6.90
2017-12-06T06:24:33.229Z,6.90
2017-12-06T06:26:59.452Z,6.90
2017-12-06T06:29:25.619Z,6.90
2017-12-06T06:31:52.560Z,6.90
2017-12-06T06:34:19.470Z,6.90
2017-12-06T06:36:45.650Z,6.90
2017-12-06T06:39:11.792Z,6.90
2017-12-06T06:41:38.088Z,6.90
2017-12-06T06:44:05.018Z,6.90
2017-12-06T06:46:31.160Z,6.90
2017-12-06T06:48:58.065Z,6.90
2017-12-06T06:51:24.191Z,6.90
2017-12-06T06:53:50.403Z,6.90
2017-12-06T06:56:16.575Z,6.90
2017-12-06T06:58:43.469Z,6.90
2017-12-06T07:01:09.634Z,6.90
2017-12-06T07:03:35.834Z,6.90
2017-12-06T07:06:02.027Z,6.90
2017-12-06T07:08:28.208Z,6.90
2017-12-06T07:10:54.343Z,6.90
2017-12-06T07:13:21.396Z,6.90
2017-12-06T07:15:48.316Z,6.90
2017-12-06T07:18:21.722Z,6.90
2017-12-06T07:20:48.627Z,6.90
2017-12-06T07:23:15.603Z,6.90
2017-12-06T07:25:42.603Z,6.90
2017-12-06T07:28:08.795Z,6.90
2017-12-06T07:30:35.735Z,6.90
2017-12-06T07:33:02.644Z,6.90
2017-12-06T07:35:28.838Z,6.90
2017-12-06T07:37:55.007Z,6.90
2017-12-06T07:40:21.171Z,6.90
2017-12-06T07:42:48.281Z,6.90
2017-12-06T07:45:14.477Z,6.80
2017-12-06T07:47:40.607Z,6.90
2017-12-06T07:50:06.795Z,6.90
2017-12-06T07:52:33.002Z,6.90
2017-12-06T07:54:59.928Z,6.90
2017-12-06T07:57:26.308Z,7.00
2017-12-06T07:59:52.436Z,6.90
2017-12-06T08:02:18.901Z,6.90
2017-12-06T08:04:45.049Z,7.00
2017-12-06T08:07:11.252Z,7.00
2017-12-06T08:09:37.403Z,6.90
2017-12-06T08:12:03.543Z,7.00
2017-12-06T08:14:30.516Z,6.90
2017-12-06T08:16:56.702Z,6.90
2017-12-06T08:19:22.906Z,7.00
2017-12-06T08:21:49.076Z,6.90
2017-12-06T08:24:15.238Z,6.90
2017-12-06T08:26:41.485Z,6.90
2017-12-06T08:29:07.631Z,6.90
2017-12-06T08:31:34.592Z,6.90
2017-12-06T08:34:00.720Z,6.90
2017-12-06T08:36:26.885Z,6.90
2017-12-06T08:38:53.043Z,6.90
2017-12-06T08:41:19.196Z,7.00
2017-12-06T08:43:46.180Z,7.00
2017-12-06T08:46:12.470Z,6.90
2017-12-06T08:48:39.416Z,7.00
2017-12-06T08:51:06.389Z,7.00
2017-12-06T08:53:32.591Z,7.00
2017-12-06T08:55:58.795Z,7.00
2017-12-06T08:58:24.968Z,6.90
2017-12-06T09:00:51.137Z,6.90
2017-12-06T09:03:17.305Z,7.00
2017-12-06T09:05:43.490Z,7.00
2017-12-06T09:08:09.738Z,6.90
2017-12-06T09:10:36.647Z,7.00
2017-12-06T09:13:02.807Z,7.00
2017-12-06T09:15:29.031Z,7.00
2017-12-06T09:17:55.184Z,6.90
2017-12-06T09:20:21.406Z,6.90
2017-12-06T09:22:47.579Z,7.00
2017-12-06T09:25:13.774Z,7.00
2017-12-06T09:27:39.959Z,7.00
2017-12-06T09:30:06.128Z,6.90
2017-12-06T09:32:32.292Z,6.90
2017-12-06T09:34:58.503Z,6.90
2017-12-06T09:37:24.655Z,6.90
2017-12-06T09:39:50.876Z,7.00
2017-12-06T09:42:17.131Z,6.90
2017-12-06T09:44:43.330Z,7.00
2017-12-06T09:47:09.525Z,7.00
2017-12-06T09:49:35.675Z,7.00
2017-12-06T09:52:01.819Z,7.00
2017-12-06T09:54:28.034Z,7.00
2017-12-06T09:56:54.167Z,7.00
2017-12-06T09:59:20.434Z,7.00
2017-12-06T10:01:46.650Z,7.00
2017-12-06T10:04:13.533Z,7.10
2017-12-06T10:06:39.695Z,7.00
2017-12-06T10:09:05.860Z,7.00
2017-12-06T10:11:32.132Z,7.10
2017-12-06T10:13:58.365Z,7.00
2017-12-06T10:16:24.565Z,7.00
2017-12-06T10:18:50.796Z,7.00
2017-12-06T10:21:16.980Z,7.00
2017-12-06T10:23:43.926Z,7.00
2017-12-06T10:26:10.092Z,7.00
2017-12-06T10:28:36.302Z,7.10
2017-12-06T10:31:02.552Z,7.10
2017-12-06T10:33:28.781Z,7.10
2017-12-06T10:35:54.996Z,7.10
2017-12-06T10:38:21.183Z,7.00
2017-12-06T10:40:47.381Z,7.00
2017-12-06T10:43:13.590Z,7.10
2017-12-06T10:45:39.771Z,7.10
2017-12-06T10:48:05.968Z,7.10
2017-12-06T10:50:32.305Z,7.10
2017-12-06T10:52:58.494Z,7.10
2017-12-06T10:55:24.720Z,7.10
2017-12-06T10:57:50.887Z,7.20
2017-12-06T11:00:17.849Z,7.10
2017-12-06T11:02:44.028Z,7.10
2017-12-06T11:05:11.092Z,7.10
2017-12-06T11:07:38.014Z,7.20
2017-12-06T11:10:04.184Z,7.20
2017-12-06T11:12:31.195Z,7.20
2017-12-06T11:14:57.355Z,7.20
2017-12-06T11:17:24.254Z,7.30
2017-12-06T11:19:50.437Z,7.20
2017-12-06T11:22:16.579Z,7.20
2017-12-06T11:24:43.176Z,7.20
2017-12-06T11:27:09.353Z,7.20
2017-12-06T11:29:35.524Z,7.20
2017-12-06T11:32:01.706Z,7.20
2017-12-06T11:34:28.024Z,7.20
2017-12-06T11:36:54.458Z,7.20
2017-12-06T11:39:20.605Z,7.20
2017-12-06T11:41:46.756Z,7.20
2017-12-06T11:44:13.351Z,7.20
2017-12-06T11:46:39.495Z,7.20
2017-12-06T11:49:05.746Z,7.20
2017-12-06T11:51:31.913Z,7.20
2017-12-06T11:53:58.097Z,7.20
2017-12-06T11:56:24.329Z,7.20
2017-12-06T11:58:50.757Z,7.20
2017-12-06T12:01:17.128Z,7.30
2017-12-06T12:03:43.402Z,7.30
2017-12-06T12:06:09.617Z,7.30
2017-12-06T12:08:35.831Z,7.30
2017-12-06T12:11:02.018Z,7.30
2017-12-06T12:13:28.900Z,7.30
2017-12-06T12:15:55.086Z,7.20
2017-12-06T12:18:22.043Z,7.20
2017-12-06T12:20:48.272Z,7.20
2017-12-06T12:23:14.449Z,7.20
2017-12-06T12:25:40.611Z,7.20
2017-12-06T12:28:07.559Z,7.20
2017-12-06T12:30:33.754Z,7.30
2017-12-06T12:32:59.911Z,7.20
2017-12-06T12:35:26.142Z,7.30
2017-12-06T12:37:52.342Z,7.20
2017-12-06T12:40:18.496Z,7.30
2017-12-06T12:42:47.700Z,7.20
2017-12-06T12:45:13.888Z,7.30
2017-12-06T12:47:40.167Z,7.30
2017-12-06T12:50:06.344Z,7.30
2017-12-06T12:52:32.512Z,7.30
2017-12-06T12:54:58.751Z,7.30
2017-12-06T12:57:24.921Z,7.30
2017-12-06T12:59:51.147Z,7.30
2017-12-06T13:02:17.315Z,7.30
2017-12-06T13:04:43.463Z,7.30
2017-12-06T13:07:09.676Z,7.30
2017-12-06T13:09:35.862Z,7.40
2017-12-06T13:12:02.851Z,7.40
2017-12-06T13:14:29.488Z,7.40
2017-12-06T13:16:55.716Z,7.40
2017-12-06T13:19:21.907Z,7.40
2017-12-06T13:21:48.915Z,7.40
2017-12-06T13:24:15.119Z,7.40
2017-12-06T13:26:41.311Z,7.40
2017-12-06T13:29:08.263Z,7.40
2017-12-06T13:31:34.499Z,7.40
2017-12-06T13:34:00.826Z,7.40
2017-12-06T13:36:27.044Z,7.40
2017-12-06T13:38:53.283Z,7.30
2017-12-06T13:41:19.466Z,7.40
2017-12-06T13:43:45.652Z,7.40
2017-12-06T13:46:11.893Z,7.40
2017-12-06T13:48:38.392Z,7.40
2017-12-06T13:51:04.704Z,7.40
2017-12-06T13:53:31.614Z,7.40
2017-12-06T13:55:58.557Z,7.40
2017-12-06T13:58:24.748Z,7.40
2017-12-06T14:00:51.154Z,7.40
2017-12-06T14:03:17.678Z,7.40
2017-12-06T14:05:44.631Z,7.40
2017-12-06T14:08:11.535Z,7.40
2017-12-06T14:10:37.697Z,7.40
2017-12-06T14:13:03.929Z,7.40
2017-12-06T14:15:30.083Z,7.40
2017-12-06T14:17:56.711Z,7.40
2017-12-06T14:20:22.950Z,7.40
2017-12-06T14:22:49.116Z,7.40
2017-12-06T14:25:15.299Z,7.40
2017-12-06T14:27:41.473Z,7.40
2017-12-06T14:30:07.695Z,7.40
2017-12-06T14:32:33.898Z,7.40
2017-12-06T14:35:00.142Z,7.40
2017-12-06T14:37:26.340Z,7.40
2017-12-06T14:39:52.516Z,7.40
2017-12-06T14:42:19.691Z,7.40
2017-12-06T14:44:45.887Z,7.40
2017-12-06T14:47:12.166Z,7.40
2017-12-06T14:49:38.456Z,7.40
2017-12-06T14:52:05.398Z,7.40
2017-12-06T14:54:32.328Z,7.50
2017-12-06T14:56:58.508Z,7.50
2017-12-06T14:59:24.726Z,7.40
2017-12-06T15:01:50.976Z,7.40
2017-12-06T15:04:17.976Z,7.50
2017-12-06T15:06:44.132Z,7.40
2017-12-06T15:09:10.319Z,7.40
2017-12-06T15:11:37.307Z,7.40
2017-12-06T15:14:03.489Z,7.40
2017-12-06T15:16:30.418Z,7.40
2017-12-06T15:18:56.578Z,7.40
2017-12-06T15:21:22.770Z,7.40
2017-12-06T15:23:48.967Z,7.40
2017-12-06T15:26:15.212Z,7.40
2017-12-06T15:28:41.831Z,7.40
2017-12-06T15:31:07.996Z,7.40
2017-12-06T15:33:34.220Z,7.40
2017-12-06T15:36:00.342Z,7.40
2017-12-06T15:38:26.518Z,7.40
2017-12-06T15:40:52.695Z,7.40
2017-12-06T15:43:18.936Z,7.40
2017-12-06T15:45:45.919Z,7.30
2017-12-06T15:48:12.140Z,7.30
2017-12-06T15:50:38.318Z,7.40
2017-12-06T15:53:04.455Z,7.30
2017-12-06T15:55:31.440Z,7.30
2017-12-06T15:57:57.627Z,7.30
2017-12-06T16:00:23.803Z,7.30
2017-12-06T16:02:49.986Z,7.30
2017-12-06T16:05:16.895Z,7.30
2017-12-06T16:07:43.101Z,7.30
2017-12-06T16:10:09.235Z,7.30
2017-12-06T16:12:35.416Z,7.30
2017-12-06T16:15:02.387Z,7.30
2017-12-06T16:17:28.586Z,7.30
2017-12-06T16:19:55.524Z,7.30
2017-12-06T16:22:22.523Z,7.30
2017-12-06T16:24:51.158Z,7.30
2017-12-06T16:27:18.074Z,7.30
2017-12-06T16:29:44.223Z,7.30
2017-12-06T16:32:10.508Z,7.30
2017-12-06T16:34:36.667Z,7.30
2017-12-06T16:37:16.260Z,7.30
2017-12-06T16:39:42.517Z,7.30
2017-12-06T16:42:08.816Z,7.30
2017-12-06T16:44:38.466Z,7.30
2017-12-06T16:47:05.484Z,7.30
2017-12-06T16:49:31.655Z,7.30
2017-12-06T16:51:58.182Z,7.30
2017-12-06T16:54:25.107Z,7.30
2017-12-06T16:56:51.296Z,7.30
2017-12-06T16:59:17.528Z,7.30
2017-12-06T17:01:43.679Z,7.30
2017-12-06T17:04:09.948Z,7.40
2017-12-06T17:06:36.308Z,7.40
2017-12-06T17:09:02.536Z,7.40
2017-12-06T17:11:28.711Z,7.40
2017-12-06T17:13:55.687Z,7.40
2017-12-06T17:16:21.870Z,7.40
2017-12-06T17:18:48.385Z,7.40
2017-12-06T17:21:14.636Z,7.40
2017-12-06T17:23:40.986Z,7.40
2017-12-06T17:26:07.174Z,7.40
2017-12-06T17:28:44.494Z,7.40
2017-12-06T17:31:23.697Z,7.40
2017-12-06T17:33:50.327Z,7.40
2017-12-06T17:36:16.491Z,7.40
2017-12-06T17:38:43.538Z,7.40
2017-12-06T17:41:09.728Z,7.40
2017-12-06T17:43:36.007Z,7.40
2017-12-06T17:46:02.306Z,7.40
2017-12-06T17:48:28.464Z,7.40
2017-12-06T17:50:54.748Z,7.50
2017-12-06T17:53:21.049Z,7.40
2017-12-06T17:55:47.236Z,7.50
2017-12-06T17:58:14.294Z,7.40
2017-12-06T18:00:40.547Z,7.40
2017-12-06T18:03:07.013Z,7.40
2017-12-06T18:05:33.422Z,7.40
2017-12-06T18:07:59.625Z,7.40
2017-12-06T18:10:25.852Z,7.50
2017-12-06T18:12:52.409Z,7.40
2017-12-06T18:15:19.386Z,7.40
2017-12-06T18:17:45.558Z,7.40
2017-12-06T18:20:13.206Z,7.50
2017-12-06T18:22:40.078Z,7.40
2017-12-06T18:25:06.483Z,7.50
2017-12-06T18:27:32.635Z,7.50
2017-12-06T18:29:58.942Z,7.50
2017-12-06T18:32:25.240Z,7.50
2017-12-06T18:34:52.152Z,7.50
2017-12-06T18:37:18.348Z,7.50
2017-12-06T18:39:44.566Z,7.50
2017-12-06T18:42:10.757Z,7.50
2017-12-06T18:44:36.936Z,7.50
2017-12-06T18:47:03.133Z,7.50
2017-12-06T18:49:30.071Z,7.50
2017-12-06T18:51:56.961Z,7.60
2017-12-06T18:54:23.177Z,7.50
2017-12-06T18:56:49.348Z,7.60
2017-12-06T18:59:16.342Z,7.60
2017-12-06T19:01:42.571Z,7.60
2017-12-06T19:04:08.772Z,7.50
2017-12-06T19:06:34.967Z,7.60
2017-12-06T19:09:01.123Z,7.60
2017-12-06T19:11:28.050Z,7.60
2017-12-06T19:13:54.990Z,7.60
2017-12-06T19:16:21.163Z,7.60
2017-12-06T19:18:47.346Z,7.50
2017-12-06T19:21:13.503Z,7.50
2017-12-06T19:23:39.707Z,7.50
2017-12-06T19:26:06.627Z,7.50
2017-12-06T19:28:32.826Z,7.40
2017-12-06T19:30:59.027Z,7.50
2017-12-06T19:33:25.227Z,7.40
2017-12-06T19:35:52.102Z,7.50
2017-12-06T19:38:18.265Z,7.40
2017-12-06T19:40:44.439Z,7.50
2017-12-06T19:43:10.586Z,7.50
2017-12-06T19:45:36.819Z,7.50
2017-12-06T19:48:03.014Z,7.50
2017-12-06T19:50:29.154Z,7.50
2017-12-06T19:52:55.326Z,7.50
2017-12-06T19:55:21.588Z,7.50
2017-12-06T19:57:47.804Z,7.50
2017-12-06T20:00:14.749Z,7.50
2017-12-06T20:02:41.758Z,7.50
2017-12-06T20:05:07.972Z,7.50
2017-12-06T20:07:34.113Z,7.50
2017-12-06T20:10:00.265Z,7.50
2017-12-06T20:12:26.388Z,7.50
2017-12-06T20:14:52.593Z,7.50
2017-12-06T20:17:18.765Z,7.50
2017-12-06T20:19:44.916Z,7.50
2017-12-06T20:22:11.078Z,7.50
2017-12-06T20:24:37.236Z,7.50
2017-12-06T20:27:04.173Z,7.60
2017-12-06T20:29:31.108Z,7.60
2017-12-06T20:31:57.286Z,7.60
2017-12-06T20:34:23.574Z,7.60
2017-12-06T20:36:50.495Z,7.60
2017-12-06T20:39:16.782Z,7.60
2017-12-06T20:41:42.943Z,7.60
2017-12-06T20:44:09.111Z,7.50
2017-12-06T20:46:35.481Z,7.50
2017-12-06T20:49:01.692Z,7.50
2017-12-06T20:51:27.894Z,7.40
2017-12-06T20:53:54.811Z,7.40
2017-12-06T20:56:20.978Z,7.40
2017-12-06T20:58:47.286Z,7.40
2017-12-06T21:01:13.510Z,7.30
2017-12-06T21:03:39.743Z,7.30
2017-12-06T21:06:06.734Z,7.40
2017-12-06T21:08:32.942Z,7.30
2017-12-06T21:10:59.165Z,7.40
2017-12-06T21:13:25.392Z,7.40
2017-12-06T21:15:51.583Z,7.30
2017-12-06T21:18:18.513Z,7.30
2017-12-06T21:20:44.710Z,7.30
2017-12-06T21:23:11.682Z,7.30
2017-12-06T21:25:37.903Z,7.30
2017-12-06T21:28:04.075Z,7.30
2017-12-06T21:30:30.338Z,7.30
2017-12-06T21:32:56.548Z,7.30
2017-12-06T21:35:22.714Z,7.40
2017-12-06T21:37:49.691Z,7.40
2017-12-06T21:40:15.963Z,7.40
2017-12-06T21:42:42.146Z,7.40
2017-12-06T21:45:08.380Z,7.30
2017-12-06T21:47:34.534Z,7.30
2017-12-06T21:50:00.727Z,7.30
2017-12-06T21:52:27.609Z,7.30
2017-12-06T21:54:53.807Z,7.30
2017-12-06T21:57:20.002Z,7.30
2017-12-06T21:59:46.127Z,7.30
2017-12-06T22:02:12.317Z,7.30
2017-12-06T22:04:38.449Z,7.30
2017-12-06T22:07:05.388Z,7.40
2017-12-06T22:09:31.575Z,7.30
2017-12-06T22:11:57.784Z,7.40
2017-12-06T22:14:24.065Z,7.30
2017-12-06T22:16:50.231Z,7.40
2017-12-06T22:19:17.115Z,7.40
2017-12-06T22:21:43.340Z,7.30
2017-12-06T22:24:09.565Z,7.40
2017-12-06T22:26:35.792Z,7.40
2017-12-06T22:29:01.919Z,7.40
2017-12-06T22:31:28.076Z,7.40
2017-12-06T22:33:54.249Z,7.40
2017-12-06T22:36:20.425Z,7.40
2017-12-06T22:38:46.663Z,7.40
2017-12-06T22:41:12.857Z,7.40
2017-12-06T22:43:39.032Z,7.40
2017-12-06T22:46:05.220Z,7.40
2017-12-06T22:48:31.393Z,7.40
2017-12-06T22:50:57.611Z,7.40
2017-12-06T22:53:23.821Z,7.40
2017-12-06T22:55:50.007Z,7.40
2017-12-06T22:58:16.304Z,7.40
2017-12-06T23:00:43.229Z,7.40
2017-12-06T23:03:09.410Z,7.30
2017-12-06T23:05:36.372Z,7.40
2017-12-06T23:08:02.548Z,7.40
2017-12-06T23:10:29.483Z,7.40
2017-12-06T23:12:55.636Z,7.40
2017-12-06T23:15:21.860Z,7.40
2017-12-06T23:17:48.013Z,7.40
2017-12-06T23:20:14.194Z,7.40
2017-12-06T23:22:41.193Z,7.40
2017-12-06T23:25:07.368Z,7.30
2017-12-06T23:27:34.325Z,7.40
2017-12-06T23:30:00.493Z,7.40
2017-12-06T23:32:26.644Z,7.40
2017-12-06T23:34:52.808Z,7.40
2017-12-06T23:37:19.035Z,7.40
2017-12-06T23:39:45.244Z,7.40
2017-12-06T23:42:12.151Z,7.40
2017-12-06T23:44:38.356Z,7.40
2017-12-06T23:47:04.556Z,7.40
2017-12-06T23:49:30.718Z,7.40
2017-12-06T23:51:56.876Z,7.40
2017-12-06T23:54:23.046Z,7.40
2017-12-06T23:56:49.207Z,7.40
2017-12-06T23:59:15.440Z,7.40
